createdAt,value
2022-11-16T00:01:16.563Z,7.18
2022-11-16T00:03:44.099Z,7.28
2022-11-16T00:06:11.762Z,7.18
2022-11-16T00:08:44.294Z,6.60
2022-11-16T00:11:14.477Z,6.70
2022-11-16T00:13:43.390Z,6.88
2022-11-16T00:16:18.143Z,7.38
2022-11-16T00:18:45.454Z,7.43
2022-11-16T00:21:12.201Z,8.38
2022-11-16T00:23:39.355Z,7.65
2022-11-16T00:26:08.585Z,6.97
2022-11-16T00:28:36.243Z,7.80
2022-11-16T00:31:05.866Z,7.28
2022-11-16T00:33:33.825Z,7.10
2022-11-16T00:36:05.467Z,7.47
2022-11-16T00:38:33.746Z,8.07
2022-11-16T00:41:00.802Z,7.10
2022-11-16T00:43:28.359Z,7.40
2022-11-16T00:45:55.174Z,8.00
2022-11-16T00:48:22.538Z,7.53
2022-11-16T00:50:49.493Z,8.05
2022-11-16T00:53:17.993Z,7.45
2022-11-16T00:55:46.269Z,7.88
2022-11-16T00:58:14.066Z,7.50
2022-11-16T01:00:41.974Z,8.25
2022-11-16T01:03:09.109Z,6.75
2022-11-16T01:05:36.138Z,7.03
2022-11-16T01:08:03.578Z,6.90
2022-11-16T01:10:30.878Z,6.95
2022-11-16T01:12:58.279Z,7.82
2022-11-16T01:15:27.004Z,7.13
2022-11-16T01:17:55.675Z,7.50
2022-11-16T01:20:25.886Z,7.53
2022-11-16T01:22:53.827Z,7.47
2022-11-16T01:25:20.988Z,7.65
2022-11-16T01:27:48.077Z,7.07
2022-11-16T01:30:16.017Z,8.35
2022-11-16T01:32:43.085Z,8.27
2022-11-16T01:35:10.678Z,7.40
2022-11-16T01:37:37.695Z,8.05
2022-11-16T01:40:04.897Z,7.80
2022-11-16T01:42:33.580Z,8.52
2022-11-16T01:45:14.133Z,8.00
2022-11-16T01:47:41.143Z,8.52
2022-11-16T01:50:13.222Z,8.68
2022-11-16T01:52:47.740Z,8.98
2022-11-16T01:55:14.935Z,7.88
2022-11-16T01:57:45.589Z,8.23
2022-11-16T02:00:13.306Z,7.93
2022-11-16T02:02:40.866Z,7.88
2022-11-16T02:05:08.502Z,8.95
2022-11-16T02:08:07.234Z,8.50
2022-11-16T02:10:57.214Z,8.30
2022-11-16T02:13:51.991Z,8.23
2022-11-16T02:16:43.498Z,7.90
2022-11-16T02:19:10.456Z,8.27
2022-11-16T02:21:43.114Z,8.13
2022-11-16T02:24:16.263Z,8.50
2022-11-16T02:27:00.909Z,7.03
2022-11-16T02:29:45.036Z,8.15
2022-11-16T02:32:17.694Z,7.75
2022-11-16T02:34:54.206Z,8.35
2022-11-16T02:37:24.586Z,8.00
2022-11-16T02:39:56.625Z,8.52
2022-11-16T02:42:30.560Z,8.90
2022-11-16T02:44:59.667Z,8.68
2022-11-16T02:47:31.229Z,8.88
2022-11-16T02:50:05.066Z,10.32
2022-11-16T02:52:32.072Z,9.75
2022-11-16T02:54:59.118Z,9.77
2022-11-16T02:57:51.765Z,8.60
2022-11-16T03:00:29.753Z,9.65
2022-11-16T03:03:07.446Z,7.82
2022-11-16T03:05:45.622Z,9.45
2022-11-16T03:08:26.452Z,9.38
2022-11-16T03:16:11.430Z,8.25
2022-11-16T03:18:40.797Z,8.95
2022-11-16T03:21:36.175Z,9.10
2022-11-16T03:24:03.629Z,9.65
2022-11-16T03:26:41.271Z,9.60
2022-11-16T03:29:20.300Z,9.57
2022-11-16T03:34:25.759Z,8.30
2022-11-16T03:36:55.904Z,10.50
2022-11-16T03:39:35.816Z,9.98
2022-11-16T03:42:09.435Z,9.77
2022-11-16T03:44:38.705Z,9.30
2022-11-16T03:47:05.735Z,9.68
2022-11-16T03:49:32.494Z,9.98
2022-11-16T03:51:59.571Z,9.93
2022-11-16T03:54:26.432Z,9.98
2022-11-16T03:56:53.519Z,10.27
2022-11-16T03:59:20.260Z,10.25
2022-11-16T04:01:47.279Z,10.10
2022-11-16T04:04:34.055Z,10.23
2022-11-16T04:07:19.849Z,11.05
2022-11-16T04:10:05.112Z,12.00
2022-11-16T04:12:51.024Z,11.55
2022-11-16T04:15:43.852Z,11.60
2022-11-16T04:18:29.256Z,10.32
2022-11-16T04:21:15.698Z,11.25
2022-11-16T04:24:01.754Z,11.45
2022-11-16T04:26:47.318Z,11.65
2022-11-16T04:29:14.762Z,10.82
2022-11-16T04:31:59.754Z,11.88
2022-11-16T04:34:45.336Z,12.48
2022-11-16T04:37:33.121Z,11.40
2022-11-16T04:40:00.189Z,10.98
2022-11-16T04:42:26.959Z,11.88
2022-11-16T04:45:12.763Z,12.75
2022-11-16T04:47:39.541Z,13.23
2022-11-16T04:50:07.165Z,17.67
2022-11-16T04:52:33.933Z,17.48
2022-11-16T04:55:00.980Z,15.18
2022-11-16T04:57:28.050Z,16.50
2022-11-16T04:59:55.137Z,17.23
2022-11-16T05:02:21.901Z,16.42
2022-11-16T05:04:48.983Z,17.85
2022-11-16T05:07:15.898Z,17.35
2022-11-16T05:09:45.489Z,16.70
2022-11-16T05:14:44.521Z,13.27
2022-11-16T05:17:12.063Z,14.30
2022-11-16T05:19:57.957Z,15.63
2022-11-16T05:22:25.164Z,15.95
2022-11-16T05:24:52.774Z,15.32
2022-11-16T05:27:21.409Z,15.38
2022-11-16T05:29:49.799Z,15.85
2022-11-16T05:32:18.001Z,15.63
2022-11-16T05:34:45.777Z,19.25
2022-11-16T05:37:13.191Z,20.15
2022-11-16T05:39:40.394Z,22.70
2022-11-16T05:42:07.812Z,23.00
2022-11-16T05:44:34.900Z,20.08
2022-11-16T05:47:01.934Z,23.10
2022-11-16T05:49:29.110Z,22.45
2022-11-16T05:51:55.951Z,22.63
2022-11-16T05:54:25.968Z,24.52
2022-11-16T05:56:54.101Z,23.25
2022-11-16T05:59:22.621Z,24.30
2022-11-16T06:01:49.971Z,23.40
2022-11-16T06:06:58.355Z,25.35
2022-11-16T06:09:25.412Z,25.92
2022-11-16T06:11:52.172Z,24.52
2022-11-16T06:14:19.289Z,26.63
2022-11-16T06:16:46.046Z,20.10
2022-11-16T06:19:13.081Z,17.90
2022-11-16T06:21:39.897Z,16.80
2022-11-16T06:24:09.237Z,19.33
2022-11-16T06:26:37.114Z,18.13
2022-11-16T06:29:04.230Z,19.33
2022-11-16T06:31:31.391Z,19.02
2022-11-16T06:33:58.434Z,18.20
2022-11-16T06:36:25.224Z,18.30
2022-11-16T06:38:52.271Z,18.98
2022-11-16T06:41:19.061Z,19.67
2022-11-16T06:43:46.268Z,20.65
2022-11-16T06:46:13.073Z,20.70
2022-11-16T06:48:40.226Z,20.55
2022-11-16T06:51:07.085Z,22.67
2022-11-16T06:53:34.178Z,23.25
2022-11-16T06:56:03.153Z,24.70
2022-11-16T07:01:06.069Z,23.92
2022-11-16T07:03:33.107Z,25.45
2022-11-16T07:05:59.845Z,27.05
2022-11-16T07:08:28.002Z,28.05
2022-11-16T07:10:54.729Z,28.70
2022-11-16T07:13:21.755Z,29.25
2022-11-16T07:15:48.500Z,30.83
2022-11-16T07:18:15.510Z,30.92
2022-11-16T07:20:42.234Z,30.40
2022-11-16T07:23:13.973Z,31.63
2022-11-16T07:25:41.315Z,29.35
2022-11-16T07:28:08.403Z,29.87
2022-11-16T07:30:35.183Z,29.40
2022-11-16T07:33:02.205Z,32.67
2022-11-16T07:35:29.170Z,30.55
2022-11-16T07:37:56.204Z,33.83
2022-11-16T07:40:23.037Z,32.65
2022-11-16T07:42:50.175Z,31.10
2022-11-16T07:45:16.968Z,29.47
2022-11-16T07:47:44.011Z,31.90
2022-11-16T07:50:11.071Z,32.95
2022-11-16T07:52:38.108Z,34.15
2022-11-16T07:55:05.886Z,35.83
2022-11-16T07:57:33.047Z,33.05
2022-11-16T08:00:00.127Z,32.03
2022-11-16T08:02:27.143Z,32.75
2022-11-16T08:04:53.922Z,34.75
2022-11-16T08:07:20.970Z,34.37
2022-11-16T08:09:48.247Z,32.85
2022-11-16T08:12:15.926Z,32.22
2022-11-16T08:14:42.677Z,33.22
2022-11-16T08:17:09.723Z,34.38
2022-11-16T08:19:36.719Z,33.05
2022-11-16T08:22:03.899Z,35.10
2022-11-16T08:24:31.133Z,35.70
2022-11-16T08:26:58.904Z,35.10
2022-11-16T08:29:26.444Z,31.15
2022-11-16T08:31:54.024Z,30.33
2022-11-16T08:34:21.402Z,28.45
2022-11-16T08:36:48.519Z,27.85
2022-11-16T08:39:15.398Z,30.92
2022-11-16T08:41:44.302Z,28.20
2022-11-16T08:44:11.625Z,27.90
2022-11-16T08:46:39.907Z,26.58
2022-11-16T08:49:06.768Z,28.63
2022-11-16T08:51:33.907Z,29.63
2022-11-16T08:54:01.657Z,30.30
2022-11-16T08:56:30.216Z,33.78
2022-11-16T08:58:59.161Z,36.93
2022-11-16T09:01:30.135Z,34.88
2022-11-16T09:03:57.371Z,39.58
2022-11-16T09:06:26.049Z,41.00
2022-11-16T09:08:53.016Z,35.50
2022-11-16T09:11:22.245Z,33.97
2022-11-16T09:13:51.522Z,31.08
2022-11-16T09:16:21.109Z,32.42
2022-11-16T09:18:49.977Z,30.83
2022-11-16T09:21:21.807Z,31.15
2022-11-16T09:23:49.502Z,30.63
2022-11-16T09:26:20.527Z,31.38
2022-11-16T09:28:48.447Z,30.42
2022-11-16T09:31:18.993Z,28.13
2022-11-16T09:33:52.062Z,27.13
2022-11-16T09:36:20.704Z,27.33
2022-11-16T09:39:23.745Z,27.65
2022-11-16T09:41:59.826Z,26.15
2022-11-16T09:44:41.601Z,27.08
2022-11-16T09:47:16.349Z,24.83
2022-11-16T09:49:51.284Z,24.00
2022-11-16T09:52:36.258Z,22.07
2022-11-16T09:55:25.684Z,21.00
2022-11-16T09:57:55.932Z,22.37
2022-11-16T10:00:23.790Z,20.05
2022-11-16T10:03:06.394Z,18.40
2022-11-16T10:05:41.164Z,17.75
2022-11-16T10:08:34.508Z,17.38
2022-11-16T10:11:40.054Z,17.00
2022-11-16T10:14:24.978Z,30.87
2022-11-16T10:17:29.357Z,30.97
2022-11-16T10:20:19.255Z,17.23
2022-11-16T10:23:13.944Z,16.07
2022-11-16T10:25:46.442Z,17.60
2022-11-16T10:28:30.382Z,16.53
2022-11-16T10:31:18.525Z,17.77
2022-11-16T10:33:49.130Z,19.00
2022-11-16T10:36:16.790Z,15.97
2022-11-16T10:38:45.133Z,15.77
2022-11-16T10:41:18.571Z,17.92
2022-11-16T10:43:46.362Z,16.13
2022-11-16T10:46:13.317Z,16.07
2022-11-16T10:48:43.416Z,16.80
2022-11-16T10:51:10.974Z,16.37
2022-11-16T10:53:40.315Z,14.70
2022-11-16T10:56:20.165Z,16.27
2022-11-16T10:58:55.726Z,16.27
2022-11-16T11:01:30.175Z,15.30
2022-11-16T11:03:56.990Z,13.97
2022-11-16T11:06:26.133Z,16.10
2022-11-16T11:08:52.969Z,13.63
2022-11-16T11:11:41.991Z,14.17
2022-11-16T11:14:15.713Z,14.48
2022-11-16T11:16:42.768Z,15.87
2022-11-16T11:19:29.084Z,18.20
2022-11-16T11:21:58.931Z,16.90
2022-11-16T11:27:20.698Z,14.77
2022-11-16T11:29:53.579Z,13.90
2022-11-16T11:32:24.382Z,13.68
2022-11-16T11:34:54.815Z,13.55
2022-11-16T11:37:27.317Z,13.43
2022-11-16T11:40:20.546Z,12.23
2022-11-16T11:43:01.007Z,13.40
2022-11-16T11:45:36.241Z,12.45
2022-11-16T11:48:27.981Z,11.03
2022-11-16T11:50:58.915Z,13.47
2022-11-16T11:53:35.387Z,12.63
2022-11-16T11:56:02.751Z,10.80
2022-11-16T11:58:34.126Z,10.90
2022-11-16T12:01:24.886Z,10.97
2022-11-16T12:04:10.464Z,11.00
2022-11-16T12:06:42.635Z,11.57
2022-11-16T12:09:29.247Z,13.00
2022-11-16T12:12:30.306Z,13.07
2022-11-16T12:15:03.333Z,11.97
2022-11-16T12:17:54.691Z,12.70
2022-11-16T12:20:41.459Z,10.57
2022-11-16T12:23:44.238Z,11.60
2022-11-16T12:26:16.935Z,10.57
2022-11-16T12:29:03.723Z,9.35
2022-11-16T12:31:37.024Z,9.33
2022-11-16T12:34:32.806Z,9.00
2022-11-16T12:37:04.361Z,7.90
2022-11-16T12:39:35.351Z,7.40
2022-11-16T12:42:02.382Z,10.17
2022-11-16T12:44:51.396Z,10.03
2022-11-16T12:47:32.056Z,8.03
2022-11-16T12:50:13.974Z,7.80
2022-11-16T12:52:46.978Z,9.97
2022-11-16T12:55:27.567Z,7.80
2022-11-16T12:58:07.039Z,11.77
2022-11-16T13:00:50.199Z,8.20
2022-11-16T13:03:29.510Z,7.00
2022-11-16T13:05:58.366Z,5.75
2022-11-16T13:08:28.445Z,9.30
2022-11-16T13:11:02.045Z,6.57
2022-11-16T13:13:38.833Z,6.73
2022-11-16T13:16:07.361Z,7.07
2022-11-16T13:18:38.903Z,9.80
2022-11-16T13:21:42.473Z,6.13
2022-11-16T13:24:19.434Z,7.33
2022-11-16T13:27:33.910Z,7.77
2022-11-16T13:30:06.600Z,7.07
2022-11-16T13:32:34.903Z,7.07
2022-11-16T13:35:05.338Z,7.78
2022-11-16T13:37:37.892Z,5.83
2022-11-16T13:40:05.120Z,5.70
2022-11-16T13:43:10.811Z,5.07
2022-11-16T13:45:49.833Z,7.50
2022-11-16T13:48:25.735Z,10.77
2022-11-16T13:50:59.078Z,7.37
2022-11-16T13:56:16.092Z,6.15
2022-11-16T13:58:49.278Z,6.90
2022-11-16T14:01:17.908Z,7.13
2022-11-16T14:03:51.545Z,7.72
2022-11-16T14:06:24.464Z,6.93
2022-11-16T14:08:53.438Z,8.70
2022-11-16T14:14:11.734Z,11.73
2022-11-16T14:16:51.595Z,8.67
2022-11-16T14:19:57.072Z,8.57
2022-11-16T14:22:42.208Z,8.00
2022-11-16T14:25:33.259Z,8.93
2022-11-16T14:28:14.981Z,9.10
2022-11-16T14:31:15.516Z,8.53
2022-11-16T14:33:42.958Z,9.90
2022-11-16T14:36:10.789Z,11.10
2022-11-16T14:38:42.022Z,9.27
2022-11-16T14:41:21.132Z,12.77
2022-11-16T14:43:52.812Z,13.90
2022-11-16T14:46:27.971Z,9.10
2022-11-16T14:48:57.358Z,9.23
2022-11-16T14:51:34.993Z,10.00
2022-11-16T14:54:24.917Z,10.10
2022-11-16T14:57:13.071Z,19.33
2022-11-16T14:59:40.124Z,10.93
2022-11-16T15:02:18.904Z,10.87
2022-11-16T15:04:46.436Z,7.90
2022-11-16T15:07:15.416Z,8.90
2022-11-16T15:09:49.318Z,8.90
2022-11-16T15:12:37.399Z,9.10
2022-11-16T15:15:08.219Z,8.32
2022-11-16T15:17:35.516Z,9.97
2022-11-16T15:20:20.040Z,10.27
2022-11-16T15:22:50.829Z,9.10
2022-11-16T15:25:41.606Z,8.47
2022-11-16T15:28:27.930Z,8.57
2022-11-16T15:31:00.862Z,10.60
2022-11-16T15:33:36.555Z,8.70
2022-11-16T15:36:39.668Z,8.73
2022-11-16T15:39:13.109Z,12.10
2022-11-16T15:41:40.604Z,10.53
2022-11-16T15:44:15.090Z,7.27
2022-11-16T15:46:46.067Z,6.80
2022-11-16T15:49:32.459Z,7.50
2022-11-16T15:52:00.055Z,8.23
2022-11-16T15:54:52.631Z,9.47
2022-11-16T15:57:22.041Z,9.27
2022-11-16T15:59:54.855Z,8.90
2022-11-16T16:02:25.921Z,11.77
2022-11-16T16:04:52.759Z,12.77
2022-11-16T16:07:40.192Z,9.17
2022-11-16T16:10:13.328Z,11.23
2022-11-16T16:12:54.336Z,9.23
2022-11-16T16:15:21.224Z,9.77
2022-11-16T16:17:48.878Z,10.13
2022-11-16T16:20:21.847Z,11.77
2022-11-16T16:22:49.117Z,12.50
2022-11-16T16:25:35.982Z,15.57
2022-11-16T16:28:03.554Z,18.43
2022-11-16T16:30:31.534Z,18.20
2022-11-16T16:32:58.950Z,11.30
2022-11-16T16:35:26.619Z,7.27
2022-11-16T16:38:01.254Z,8.60
2022-11-16T16:40:29.122Z,7.17
2022-11-16T16:42:57.940Z,7.37
2022-11-16T16:45:34.517Z,6.18
2022-11-16T16:48:01.549Z,8.17
2022-11-16T16:50:28.771Z,7.67
2022-11-16T16:52:55.808Z,6.20
2022-11-16T16:55:22.622Z,8.47
2022-11-16T16:57:49.699Z,7.70
2022-11-16T17:00:17.116Z,8.90
2022-11-16T17:02:44.359Z,8.33
2022-11-16T17:05:11.154Z,10.40
2022-11-16T17:07:38.224Z,13.27
2022-11-16T17:10:05.573Z,9.10
2022-11-16T17:12:32.737Z,10.77
2022-11-16T17:14:59.538Z,9.10
2022-11-16T17:17:27.119Z,8.83
2022-11-16T17:19:53.942Z,8.83
2022-11-16T17:22:21.295Z,6.50
2022-11-16T17:24:48.062Z,8.27
2022-11-16T17:27:15.202Z,8.00
2022-11-16T17:29:41.950Z,6.03
2022-11-16T17:32:09.078Z,9.83
2022-11-16T17:34:37.828Z,7.93
2022-11-16T17:37:04.878Z,7.07
2022-11-16T17:39:31.591Z,9.17
2022-11-16T17:41:58.648Z,10.27
2022-11-16T17:44:26.704Z,9.93
2022-11-16T17:46:53.768Z,7.15
2022-11-16T17:49:20.528Z,10.73
2022-11-16T17:51:47.676Z,8.00
2022-11-16T17:54:14.945Z,7.53
2022-11-16T17:56:43.313Z,8.65
2022-11-16T17:59:10.083Z,10.23
2022-11-16T18:01:37.304Z,10.67
2022-11-16T18:04:04.752Z,12.27
2022-11-16T18:06:33.208Z,17.50
2022-11-16T18:09:00.160Z,12.77
2022-11-16T18:11:28.336Z,13.83
2022-11-16T18:14:00.609Z,9.43
2022-11-16T18:16:31.628Z,9.80
2022-11-16T18:19:03.817Z,10.33
2022-11-16T18:21:31.798Z,12.37
2022-11-16T18:23:59.644Z,15.07
2022-11-16T18:26:26.680Z,11.23
2022-11-16T18:28:54.007Z,7.37
2022-11-16T18:31:23.251Z,7.03
2022-11-16T18:33:50.895Z,7.00
2022-11-16T18:36:19.654Z,8.20
2022-11-16T18:38:47.138Z,8.10
2022-11-16T18:41:14.197Z,9.67
2022-11-16T18:43:55.340Z,7.00
2022-11-16T18:46:25.686Z,7.17
2022-11-16T18:48:52.630Z,6.43
2022-11-16T18:51:21.295Z,8.60
2022-11-16T18:53:48.612Z,5.15
2022-11-16T18:56:16.361Z,6.73
2022-11-16T18:58:50.247Z,5.97
2022-11-16T19:01:19.832Z,7.00
2022-11-16T19:03:46.817Z,8.50
2022-11-16T19:06:15.649Z,6.10
2022-11-16T19:08:43.618Z,5.47
2022-11-16T19:11:12.092Z,7.47
2022-11-16T19:13:40.384Z,9.17
2022-11-16T19:16:08.586Z,7.20
2022-11-16T19:18:36.482Z,11.20
2022-11-16T19:21:15.176Z,9.57
2022-11-16T19:23:44.507Z,9.80
2022-11-16T19:26:13.409Z,9.10
2022-11-16T19:28:42.861Z,11.95
2022-11-16T19:31:16.050Z,10.47
2022-11-16T19:33:44.510Z,11.97
2022-11-16T19:36:16.934Z,4.70
2022-11-16T19:38:45.252Z,7.40
2022-11-16T19:41:14.491Z,7.95
2022-11-16T19:43:42.341Z,5.45
2022-11-16T19:46:17.830Z,6.63
2022-11-16T19:48:46.003Z,12.90
2022-11-16T19:51:19.206Z,6.68
2022-11-16T19:53:46.433Z,8.27
2022-11-16T19:56:15.308Z,5.73
2022-11-16T19:58:42.752Z,2.78
2022-11-16T20:01:15.269Z,6.07
2022-11-16T20:03:42.339Z,6.00
2022-11-16T20:06:21.691Z,6.90
2022-11-16T20:08:51.023Z,6.28
2022-11-16T20:11:26.278Z,3.70
2022-11-16T20:13:54.695Z,3.40
2022-11-16T20:16:24.278Z,2.65
2022-11-16T20:18:52.785Z,7.37
2022-11-16T20:21:25.617Z,4.43
2022-11-16T20:23:53.498Z,4.20
2022-11-16T20:26:21.486Z,5.63
2022-11-16T20:28:52.709Z,6.10
2022-11-16T20:31:22.505Z,5.90
2022-11-16T20:33:54.790Z,4.50
2022-11-16T20:36:23.477Z,3.30
2022-11-16T20:38:50.664Z,2.63
2022-11-16T20:41:18.857Z,3.20
2022-11-16T20:43:47.225Z,1.80
2022-11-16T20:46:16.074Z,2.40
2022-11-16T20:48:43.773Z,2.78
2022-11-16T20:51:14.413Z,2.40
2022-11-16T20:53:41.201Z,2.20
2022-11-16T20:56:10.327Z,2.40
2022-11-16T20:58:37.841Z,3.63
2022-11-16T21:01:13.974Z,3.53
2022-11-16T21:03:42.563Z,2.67
2022-11-16T21:06:09.691Z,2.58
2022-11-16T21:08:37.916Z,3.17
2022-11-16T21:11:16.906Z,2.83
2022-11-16T21:14:04.143Z,2.40
2022-11-16T21:16:32.590Z,4.00
2022-11-16T21:19:00.400Z,2.97
2022-11-16T21:21:27.561Z,3.03
2022-11-16T21:23:55.166Z,3.20
2022-11-16T21:26:29.025Z,3.67
2022-11-16T21:28:56.734Z,3.13
2022-11-16T21:31:26.221Z,3.17
2022-11-16T21:36:23.053Z,3.67
2022-11-16T21:38:50.607Z,3.73
2022-11-16T21:41:19.222Z,3.27
2022-11-16T21:43:46.673Z,3.72
2022-11-16T21:46:16.017Z,3.50
2022-11-16T21:48:43.180Z,2.75
2022-11-16T21:51:12.990Z,2.63
2022-11-16T21:53:39.926Z,2.60
2022-11-16T21:56:10.440Z,3.43
2022-11-16T21:58:39.165Z,3.33
2022-11-16T22:01:06.555Z,2.75
2022-11-16T22:03:34.155Z,2.87
2022-11-16T22:06:22.199Z,3.33
2022-11-16T22:08:49.215Z,2.53
2022-11-16T22:11:17.069Z,2.60
2022-11-16T22:13:43.880Z,2.70
2022-11-16T22:16:15.137Z,2.97
2022-11-16T22:18:42.191Z,2.93
2022-11-16T22:21:09.187Z,3.27
2022-11-16T22:23:37.324Z,2.60
2022-11-16T22:26:07.490Z,1.75
2022-11-16T22:28:35.217Z,2.70
2022-11-16T22:31:07.384Z,2.70
2022-11-16T22:33:35.072Z,2.63
2022-11-16T22:36:02.330Z,2.70
2022-11-16T22:38:29.702Z,2.77
2022-11-16T22:40:57.491Z,2.97
2022-11-16T22:43:26.890Z,2.83
2022-11-16T22:48:23.846Z,2.60
2022-11-16T22:50:50.592Z,2.33
2022-11-16T22:53:17.604Z,2.63
2022-11-16T22:55:44.710Z,2.47
2022-11-16T22:58:11.711Z,2.57
2022-11-16T23:00:42.021Z,2.70
2022-11-16T23:03:09.504Z,1.70
2022-11-16T23:05:36.237Z,2.27
2022-11-16T23:08:03.230Z,2.10
2022-11-16T23:10:49.995Z,2.30
2022-11-16T23:13:35.756Z,2.53
2022-11-16T23:16:06.010Z,2.50
2022-11-16T23:18:33.002Z,2.37
2022-11-16T23:21:18.416Z,2.67
2022-11-16T23:24:03.695Z,2.40
2022-11-16T23:26:48.814Z,1.63
2022-11-16T23:29:15.840Z,1.60
2022-11-16T23:31:42.540Z,2.20
2022-11-16T23:34:09.506Z,2.30
2022-11-16T23:36:36.216Z,2.03
2022-11-16T23:39:03.272Z,2.33
2022-11-16T23:41:48.405Z,2.30
2022-11-16T23:44:15.400Z,2.63
2022-11-16T23:46:42.131Z,2.20
2022-11-16T23:49:09.116Z,2.40
2022-11-16T23:51:35.792Z,2.30
2022-11-16T23:54:04.849Z,2.27
2022-11-16T23:56:31.890Z,2.60
2022-11-16T23:58:58.885Z,2.57
